Time;durP1;ratioP1;P1;durP2;ratioP2;P2;SDS_P1;SDS_P2;PMS_P1;PMS_P2;Temp;Humidity;BMP_temperature;BMP_pressure;BME280_temperature;BME280_humidity;BME280_pressure;Samples;Min_cycle;Max_cycle;Signal;HPM_P1;HPM_P2
2023/01/31 00:02:00;;;;;;;24.48;5.85;;;4.00;99.90;;;;;;5112989;28;20039;-63
2023/01/31 00:04:25;;;;;;;25.83;4.72;;;4.00;99.90;;;;;;5112611;28;20051;-63
2023/01/31 00:06:52;;;;;;;33.55;5.45;;;3.90;99.90;;;;;;5113033;28;20400;-62
2023/01/31 00:09:18;;;;;;;24.60;4.65;;;3.90;99.90;;;;;;5112827;28;20058;-62
2023/01/31 00:11:44;;;;;;;19.95;4.40;;;3.90;99.90;;;;;;5094632;28;20051;-62
2023/01/31 00:14:17;;;;;;;25.50;5.38;;;4.00;99.90;;;;;;5112841;28;20043;-63
2023/01/31 00:16:42;;;;;;;27.15;5.30;;;3.80;99.90;;;;;;5112508;28;20153;-62
2023/01/31 00:19:08;;;;;;;31.58;5.38;;;3.80;99.90;;;;;;5111751;28;20188;-62
2023/01/31 00:21:34;;;;;;;31.83;4.78;;;3.80;99.90;;;;;;5112580;28;20047;-63
2023/01/31 00:24:00;;;;;;;29.77;5.88;;;3.70;99.90;;;;;;5112737;28;20499;-63
2023/01/31 00:26:29;;;;;;;30.65;5.57;;;3.70;99.90;;;;;;5094107;28;20044;-64
2023/01/31 00:28:56;;;;;;;22.23;4.95;;;3.70;99.90;;;;;;5093841;28;20122;-62
2023/01/31 00:31:23;;;;;;;27.85;5.70;;;3.80;99.90;;;;;;5112582;28;20043;-63
2023/01/31 00:33:51;;;;;;;26.10;4.93;;;3.70;99.90;;;;;;5112113;28;20055;-63
2023/01/31 00:36:20;;;;;;;27.75;5.90;;;3.80;99.90;;;;;;5112446;28;20051;-63
2023/01/31 00:38:52;;;;;;;38.13;6.03;;;3.80;99.90;;;;;;5111795;28;20104;-63
2023/01/31 00:41:19;;;;;;;22.60;5.15;;;3.80;99.90;;;;;;5112370;28;20047;-63
2023/01/31 00:43:44;;;;;;;26.95;5.25;;;3.80;99.90;;;;;;5112065;28;20377;-63
2023/01/31 00:46:10;;;;;;;24.35;4.95;;;4.30;99.90;;;;;;5094557;28;20052;-64
2023/01/31 00:48:36;;;;;;;26.55;4.90;;;3.80;99.90;;;;;;5112377;28;20043;-63
2023/01/31 00:51:02;;;;;;;24.63;5.97;;;3.80;99.90;;;;;;5112162;28;20138;-63
2023/01/31 00:53:28;;;;;;;27.23;5.35;;;3.80;99.90;;;;;;5093838;28;20450;-65
2023/01/31 00:56:00;;;;;;;26.63;5.57;;;3.70;99.90;;;;;;5111973;28;20048;-64
2023/01/31 00:58:26;;;;;;;28.45;5.15;;;3.70;99.90;;;;;;5094030;28;20052;-63
2023/01/31 01:00:51;;;;;;;31.67;5.50;;;3.70;99.90;;;;;;5112019;28;20047;-63
2023/01/31 01:03:17;;;;;;;22.90;4.80;;;3.70;99.90;;;;;;5112120;28;20047;-63
2023/01/31 01:05:43;;;;;;;30.63;5.70;;;3.70;99.90;;;;;;5093673;28;20050;-63
2023/01/31 01:08:09;;;;;;;28.60;4.53;;;3.60;99.90;;;;;;5093650;28;20043;-64
2023/01/31 01:10:34;;;;;;;27.33;4.55;;;3.60;99.90;;;;;;5111906;28;20039;-63
2023/01/31 01:13:01;;;;;;;24.60;3.95;;;3.60;99.90;;;;;;5112184;28;20393;-63
2023/01/31 01:15:26;;;;;;;22.60;4.88;;;3.60;99.90;;;;;;5112136;28;20101;-63
2023/01/31 01:17:53;;;;;;;21.95;4.70;;;3.50;99.90;;;;;;5093815;28;20293;-63
2023/01/31 01:20:19;;;;;;;20.52;4.57;;;3.50;99.90;;;;;;5112107;28;20127;-63
2023/01/31 01:22:44;;;;;;;30.42;4.80;;;3.40;99.90;;;;;;5111517;28;20139;-63
2023/01/31 01:25:10;;;;;;;20.92;4.45;;;3.40;99.90;;;;;;5093999;28;20046;-63
2023/01/31 01:27:36;;;;;;;32.40;4.93;;;3.40;99.90;;;;;;5111651;28;20443;-63
2023/01/31 01:30:03;;;;;;;21.63;4.47;;;3.40;99.90;;;;;;5111933;28;20397;-63
2023/01/31 01:32:29;;;;;;;26.67;4.68;;;3.40;99.90;;;;;;5111926;28;20396;-63
2023/01/31 01:34:55;;;;;;;24.00;4.68;;;3.40;99.90;;;;;;5093647;28;20047;-63
2023/01/31 01:37:21;;;;;;;26.95;4.57;;;3.30;99.90;;;;;;5112157;28;20384;-63
2023/01/31 01:39:53;;;;;;;16.83;4.57;;;3.40;99.90;;;;;;5096149;28;20047;-63
2023/01/31 01:42:22;;;;;;;26.48;4.50;;;3.50;99.90;;;;;;5115855;28;20071;-63
2023/01/31 01:45:14;;;;;;;27.75;4.97;;;3.40;99.90;;;;;;5115382;28;20418;-63
2023/01/31 01:47:49;;;;;;;26.80;4.60;;;3.40;99.90;;;;;;5115579;28;20051;-63
2023/01/31 01:50:29;;;;;;;17.98;3.95;;;3.40;99.90;;;;;;5097707;28;20098;-62
2023/01/31 01:53:01;;;;;;;29.23;4.68;;;3.50;99.90;;;;;;5115450;28;20112;-62
2023/01/31 01:55:41;;;;;;;25.67;5.63;;;3.50;99.90;;;;;;5097439;28;20135;-62
2023/01/31 01:58:19;;;;;;;26.55;4.70;;;3.50;99.90;;;;;;5115624;28;20047;-63
2023/01/31 02:00:46;;;;;;;31.08;4.72;;;3.70;99.90;;;;;;5080002;28;20058;-63
2023/01/31 02:03:12;;;;;;;20.70;4.78;;;3.50;99.90;;;;;;5115401;28;20070;-63
2023/01/31 02:05:48;;;;;;;23.85;5.03;;;3.50;99.90;;;;;;5115372;28;20089;-64
2023/01/31 02:08:17;;;;;;;24.13;4.47;;;3.60;99.90;;;;;;5115075;28;20047;-63
2023/01/31 02:10:46;;;;;;;25.27;4.13;;;3.70;99.90;;;;;;5096833;28;20043;-64
2023/01/31 02:13:12;;;;;;;26.88;4.85;;;3.60;99.90;;;;;;5097191;28;20051;-63
2023/01/31 02:15:38;;;;;;;25.23;4.35;;;3.70;99.90;;;;;;5115222;28;20086;-62
2023/01/31 02:18:04;;;;;;;19.92;4.38;;;3.80;99.90;;;;;;5114858;28;20094;-63
2023/01/31 02:20:50;;;;;;;26.27;4.85;;;3.70;99.90;;;;;;5096966;28;20055;-63
2023/01/31 02:23:40;;;;;;;18.17;3.70;;;3.70;99.90;;;;;;5115177;28;20052;-63
2023/01/31 02:26:23;;;;;;;22.48;4.53;;;3.80;99.90;;;;;;5115167;28;20087;-63
2023/01/31 02:28:55;;;;;;;21.20;4.53;;;3.80;99.90;;;;;;5114354;28;20047;-63
2023/01/31 02:31:36;;;;;;;24.05;4.82;;;3.80;99.90;;;;;;5097000;28;20176;-63
2023/01/31 02:34:35;;;;;;;28.25;4.95;;;3.90;99.90;;;;;;5114434;28;20127;-63
2023/01/31 02:37:17;;;;;;;29.63;4.63;;;3.90;99.90;;;;;;5096529;28;20579;-63
2023/01/31 02:40:10;;;;;;;21.27;4.47;;;3.90;99.90;;;;;;5114670;28;20047;-64
2023/01/31 02:42:42;;;;;;;22.42;4.30;;;4.00;99.90;;;;;;5114356;28;20122;-62
2023/01/31 02:45:13;;;;;;;23.65;4.78;;;4.00;99.90;;;;;;5114336;28;20116;-62
2023/01/31 02:47:45;;;;;;;25.33;3.95;;;4.00;99.90;;;;;;5114520;28;20047;-63
2023/01/31 02:50:17;;;;;;;21.02;4.00;;;4.10;99.90;;;;;;5095381;28;20378;-63
2023/01/31 02:53:10;;;;;;;25.40;4.47;;;4.10;99.90;;;;;;5114545;28;20485;-63
2023/01/31 02:58:28;;;;;;;18.45;4.05;;;4.10;99.90;;;;;;5114394;28;20090;-63
2023/01/31 03:00:57;;;;;;;20.02;3.42;;;4.20;99.90;;;;;;5113847;28;20043;-63
2023/01/31 03:03:30;;;;;;;24.50;4.30;;;4.10;99.90;;;;;;5114075;28;20040;-63
2023/01/31 03:06:33;;;;;;;20.98;3.83;;;4.20;99.90;;;;;;5113396;28;20043;-63
2023/01/31 03:09:30;;;;;;;27.55;4.35;;;4.20;99.90;;;;;;5113439;28;20120;-63
2023/01/31 03:12:08;;;;;;;18.17;4.10;;;4.20;99.90;;;;;;5113669;28;20051;-63
2023/01/31 03:14:51;;;;;;;18.67;3.75;;;4.10;99.90;;;;;;5095984;28;20394;-63
2023/01/31 03:17:32;;;;;;;21.10;4.18;;;4.10;99.90;;;;;;5095946;28;20048;-63
2023/01/31 03:19:57;;;;;;;20.63;3.55;;;4.10;99.90;;;;;;5113566;28;20055;-64
2023/01/31 03:22:34;;;;;;;21.17;4.15;;;4.10;99.90;;;;;;5113500;28;20377;-63
2023/01/31 03:25:04;;;;;;;21.05;3.70;;;4.10;99.90;;;;;;5113689;28;20132;-63
2023/01/31 03:27:30;;;;;;;17.00;3.67;;;4.10;99.90;;;;;;5113728;28;20389;-63
2023/01/31 03:30:03;;;;;;;17.35;3.78;;;4.10;99.90;;;;;;5113551;28;20047;-63
2023/01/31 03:32:38;;;;;;;16.20;3.38;;;4.10;99.90;;;;;;5095371;28;20575;-63
2023/01/31 03:35:05;;;;;;;21.55;3.88;;;4.10;99.90;;;;;;5113188;28;20546;-62
2023/01/31 03:37:46;;;;;;;24.60;4.13;;;4.10;99.90;;;;;;5113665;28;20186;-64
2023/01/31 03:40:18;;;;;;;19.08;4.00;;;4.10;99.90;;;;;;5113154;28;20144;-64
2023/01/31 03:43:00;;;;;;;19.45;3.55;;;4.00;99.90;;;;;;5113195;28;20048;-64
2023/01/31 03:45:29;;;;;;;16.73;3.35;;;4.00;99.90;;;;;;5113699;28;20055;-64
2023/01/31 03:47:57;;;;;;;24.92;4.78;;;4.00;99.90;;;;;;5113128;28;20039;-64
2023/01/31 03:50:35;;;;;;;25.83;5.22;;;4.00;99.90;;;;;;5113500;28;20047;-64
2023/01/31 03:53:16;;;;;;;21.83;4.30;;;4.10;99.90;;;;;;5113012;28;20481;-64
2023/01/31 03:55:54;;;;;;;15.18;3.53;;;4.10;99.90;;;;;;5113558;28;20039;-64
2023/01/31 03:58:24;;;;;;;22.67;4.47;;;4.10;99.90;;;;;;5113217;28;20040;-62
2023/01/31 04:00:51;;;;;;;22.65;3.90;;;4.10;99.90;;;;;;5113319;28;20130;-62
2023/01/31 04:03:27;;;;;;;23.85;3.97;;;4.20;99.90;;;;;;5112408;28;20065;-62
2023/01/31 04:05:53;;;;;;;23.30;5.15;;;4.20;99.90;;;;;;5113082;28;20043;-63
2023/01/31 04:08:19;;;;;;;19.63;4.57;;;4.20;99.90;;;;;;5112520;28;20127;-62
2023/01/31 04:10:45;;;;;;;19.95;3.88;;;4.30;99.90;;;;;;5112898;28;20424;-63
2023/01/31 04:13:11;;;;;;;21.08;4.50;;;4.40;99.90;;;;;;5112497;28;20039;-63
2023/01/31 04:15:37;;;;;;;20.20;4.32;;;4.40;99.90;;;;;;5112784;28;20043;-65
2023/01/31 04:18:03;;;;;;;18.25;4.00;;;4.40;99.90;;;;;;5094401;28;20043;-65
2023/01/31 04:20:28;;;;;;;23.48;4.55;;;4.40;99.90;;;;;;5112872;28;20043;-65
2023/01/31 04:22:54;;;;;;;26.08;5.18;;;4.40;99.90;;;;;;5112872;28;20465;-62
2023/01/31 04:25:20;;;;;;;23.27;5.13;;;4.50;99.90;;;;;;5112323;28;20043;-63
2023/01/31 04:27:45;;;;;;;24.58;4.53;;;4.50;99.90;;;;;;5112425;28;20051;-63
2023/01/31 04:30:11;;;;;;;29.55;5.00;;;4.50;99.90;;;;;;5112161;28;20090;-63
2023/01/31 04:32:37;;;;;;;23.92;4.43;;;4.50;99.90;;;;;;5094758;28;20045;-63
2023/01/31 04:35:03;;;;;;;22.77;4.50;;;4.60;99.90;;;;;;5094232;28;20494;-63
2023/01/31 04:37:29;;;;;;;23.38;4.35;;;4.60;99.90;;;;;;5112663;28;20404;-63
2023/01/31 04:39:55;;;;;;;23.17;4.65;;;4.60;99.90;;;;;;5094403;28;20049;-63
2023/01/31 04:42:20;;;;;;;36.63;5.82;;;4.70;99.90;;;;;;5111917;28;20105;-63
2023/01/31 04:44:46;;;;;;;23.52;4.80;;;4.60;99.90;;;;;;5112747;28;20039;-63
2023/01/31 04:47:12;;;;;;;26.23;5.30;;;4.70;99.90;;;;;;5111870;28;20044;-64
2023/01/31 04:49:37;;;;;;;32.05;5.63;;;4.70;99.90;;;;;;5094392;28;20087;-63
2023/01/31 04:52:03;;;;;;;33.35;5.28;;;4.70;99.90;;;;;;5111427;28;20040;-65
2023/01/31 04:54:29;;;;;;;27.10;6.00;;;4.80;99.90;;;;;;5112372;28;20048;-63
2023/01/31 04:56:54;;;;;;;28.45;5.63;;;4.90;99.90;;;;;;5112644;28;20047;-63
2023/01/31 04:59:20;;;;;;;36.72;6.22;;;4.90;99.90;;;;;;5111849;28;20048;-63
2023/01/31 05:01:46;;;;;;;25.15;5.32;;;4.90;99.90;;;;;;5112100;28;20035;-63
2023/01/31 05:04:11;;;;;;;27.42;6.07;;;4.90;99.90;;;;;;5111993;28;20043;-63
2023/01/31 05:06:37;;;;;;;28.73;5.85;;;5.00;99.90;;;;;;5094318;28;20108;-63
2023/01/31 05:09:03;;;;;;;26.05;5.60;;;5.00;99.90;;;;;;5093691;28;20087;-65
2023/01/31 05:11:29;;;;;;;27.92;5.82;;;5.00;99.90;;;;;;5112442;28;20043;-63
2023/01/31 05:13:54;;;;;;;30.25;6.57;;;5.00;99.90;;;;;;5113457;28;20051;-63
2023/01/31 05:16:20;;;;;;;24.98;5.30;;;5.00;99.90;;;;;;5116044;28;20500;-63
2023/01/31 05:18:46;;;;;;;33.00;6.65;;;5.00;99.90;;;;;;5115967;28;20101;-63
2023/01/31 05:21:11;;;;;;;31.30;6.20;;;5.00;99.90;;;;;;5097742;28;20055;-63
2023/01/31 05:23:37;;;;;;;28.23;6.00;;;5.10;99.90;;;;;;5116176;28;20051;-63
2023/01/31 05:26:04;;;;;;;33.67;6.07;;;5.10;99.90;;;;;;5116255;28;20047;-63
2023/01/31 05:28:29;;;;;;;30.60;6.28;;;5.10;99.90;;;;;;5115845;28;20051;-63
2023/01/31 05:31:02;;;;;;;25.58;5.10;;;5.10;99.90;;;;;;5116159;28;20047;-63
2023/01/31 05:33:28;;;;;;;24.55;5.35;;;5.10;99.90;;;;;;5115784;28;20040;-63
2023/01/31 05:35:53;;;;;;;29.35;5.22;;;5.10;99.90;;;;;;5116099;28;20047;-62
2023/01/31 05:38:19;;;;;;;28.10;6.65;;;5.10;99.90;;;;;;5115208;28;20100;-62
2023/01/31 05:40:45;;;;;;;24.95;5.25;;;5.10;99.90;;;;;;5097656;28;20123;-62
2023/01/31 05:43:11;;;;;;;27.23;5.80;;;5.10;99.90;;;;;;5115399;28;20088;-62
2023/01/31 05:45:36;;;;;;;27.67;5.07;;;5.10;99.90;;;;;;5097346;28;20044;-62
2023/01/31 05:48:02;;;;;;;28.13;5.53;;;5.10;99.90;;;;;;5097767;28;20043;-62
2023/01/31 05:50:28;;;;;;;30.50;5.15;;;5.10;99.90;;;;;;5097173;28;20105;-63
2023/01/31 05:52:58;;;;;;;26.38;5.22;;;5.10;99.90;;;;;;5097010;28;20074;-62
2023/01/31 05:55:25;;;;;;;30.73;5.15;;;5.20;99.90;;;;;;5115297;28;20070;-63
2023/01/31 05:57:52;;;;;;;33.10;5.68;;;5.20;99.90;;;;;;5115782;28;20047;-63
2023/01/31 06:00:19;;;;;;;24.50;5.18;;;5.20;99.90;;;;;;5115307;28;20047;-63
2023/01/31 06:02:44;;;;;;;27.50;6.57;;;5.20;99.90;;;;;;5115047;28;20545;-63
2023/01/31 06:05:11;;;;;;;27.67;5.10;;;5.20;99.90;;;;;;5115476;28;20043;-63
2023/01/31 06:07:38;;;;;;;26.77;5.35;;;5.10;99.90;;;;;;5097158;28;20043;-62
2023/01/31 06:10:04;;;;;;;19.63;4.47;;;5.20;99.90;;;;;;5115438;28;20434;-62
2023/01/31 06:12:30;;;;;;;24.35;5.55;;;5.20;99.90;;;;;;5114784;28;20393;-63
2023/01/31 06:14:56;;;;;;;27.42;5.93;;;5.20;99.90;;;;;;5097211;28;20036;-64
2023/01/31 06:17:25;;;;;;;27.73;5.68;;;5.20;99.90;;;;;;5114901;28;20039;-64
2023/01/31 06:19:51;;;;;;;31.15;5.63;;;5.20;99.90;;;;;;5097008;28;20080;-63
2023/01/31 06:22:20;;;;;;;27.98;6.32;;;5.20;99.90;;;;;;5114575;28;20043;-62
2023/01/31 06:24:45;;;;;;;25.52;6.05;;;5.30;99.90;;;;;;5096251;28;20054;-64
2023/01/31 06:27:11;;;;;;;25.02;5.20;;;5.30;99.90;;;;;;5114689;28;20069;-63
2023/01/31 06:29:37;;;;;;;31.30;6.00;;;5.20;99.90;;;;;;5096573;28;20075;-64
2023/01/31 06:32:03;;;;;;;31.08;5.22;;;5.30;99.90;;;;;;5114681;28;20100;-64
2023/01/31 06:34:29;;;;;;;23.65;5.53;;;5.30;99.90;;;;;;5114498;28;20534;-64
2023/01/31 06:36:54;;;;;;;27.77;6.10;;;5.30;99.90;;;;;;5114908;28;20047;-63
2023/01/31 06:39:20;;;;;;;32.17;6.00;;;5.30;99.90;;;;;;5096216;28;20445;-64
2023/01/31 06:41:46;;;;;;;33.05;6.10;;;5.30;99.90;;;;;;5114626;28;20043;-63
2023/01/31 06:44:11;;;;;;;22.00;5.10;;;5.30;99.90;;;;;;5114697;28;20039;-63
2023/01/31 06:46:37;;;;;;;26.55;5.22;;;5.30;99.90;;;;;;5096336;28;20311;-63
2023/01/31 06:49:04;;;;;;;25.85;5.45;;;5.30;99.90;;;;;;5114730;28;20043;-65
2023/01/31 06:51:30;;;;;;;26.80;6.28;;;5.30;99.90;;;;;;5113935;28;20113;-63
2023/01/31 06:53:56;;;;;;;32.75;7.00;;;5.30;99.90;;;;;;5114320;28;20481;-63
2023/01/31 06:56:22;;;;;;;30.98;6.88;;;5.30;99.90;;;;;;5095921;28;20043;-62
2023/01/31 06:58:48;;;;;;;26.23;5.30;;;5.30;99.90;;;;;;5096350;28;20047;-63
2023/01/31 07:01:14;;;;;;;23.02;4.90;;;5.30;99.90;;;;;;5096361;28;20369;-63
2023/01/31 07:03:40;;;;;;;28.88;5.40;;;5.30;99.90;;;;;;5095535;28;20123;-63
2023/01/31 07:06:07;;;;;;;28.08;5.93;;;5.40;99.90;;;;;;5079088;28;20043;-64
2023/01/31 07:08:33;;;;;;;27.48;5.57;;;5.30;99.90;;;;;;5113780;28;20127;-63
2023/01/31 07:11:00;;;;;;;26.67;6.18;;;5.30;99.90;;;;;;5078907;28;20094;-63
2023/01/31 07:13:27;;;;;;;28.25;5.28;;;5.40;99.90;;;;;;5113642;28;20067;-64
2023/01/31 07:15:53;;;;;;;22.40;5.10;;;5.40;99.90;;;;;;5113912;28;20060;-63
2023/01/31 07:18:19;;;;;;;23.35;5.35;;;5.30;99.90;;;;;;5095960;28;20047;-63
2023/01/31 07:20:45;;;;;;;21.50;4.75;;;5.40;99.90;;;;;;5095313;28;20063;-64
2023/01/31 07:23:11;;;;;;;24.77;6.22;;;5.40;99.90;;;;;;5113671;28;20437;-63
2023/01/31 07:25:36;;;;;;;33.03;5.50;;;5.40;99.90;;;;;;5113063;28;20048;-63
2023/01/31 07:28:02;;;;;;;25.60;5.70;;;5.40;99.90;;;;;;5113823;28;20054;-63
2023/01/31 07:30:28;;;;;;;26.17;5.43;;;5.40;99.90;;;;;;5078462;28;20055;-63
2023/01/31 07:32:54;;;;;;;24.52;5.47;;;5.50;99.90;;;;;;5113641;28;20100;-63
2023/01/31 07:35:20;;;;;;;26.70;4.82;;;5.50;99.90;;;;;;5113452;28;20114;-63
2023/01/31 07:37:46;;;;;;;21.40;5.47;;;5.50;99.90;;;;;;5112226;28;20043;-63
2023/01/31 07:40:14;;;;;;;20.52;4.70;;;5.50;99.90;;;;;;5113495;28;20040;-64
2023/01/31 07:42:40;;;;;;;22.00;4.35;;;5.50;99.90;;;;;;5093706;28;20044;-64
2023/01/31 07:45:07;;;;;;;28.35;5.15;;;5.50;99.90;;;;;;5094477;28;20138;-65
2023/01/31 07:47:33;;;;;;;23.50;5.03;;;5.60;99.90;;;;;;5094495;28;20052;-65
2023/01/31 07:49:58;;;;;;;18.98;5.00;;;5.60;99.90;;;;;;5113004;28;20050;-65
2023/01/31 07:52:24;;;;;;;22.98;5.80;;;5.60;99.90;;;;;;5112551;28;20405;-65
2023/01/31 07:54:50;;;;;;;25.85;5.80;;;5.60;99.90;;;;;;5112548;28;20043;-65
2023/01/31 07:57:16;;;;;;;24.40;4.35;;;5.60;99.90;;;;;;5112794;28;20120;-64
2023/01/31 07:59:45;;;;;;;17.08;4.95;;;5.60;99.90;;;;;;5112866;28;20047;-65
2023/01/31 08:04:56;;;;;;;23.88;4.68;;;5.60;99.90;;;;;;5113203;28;20058;-66
2023/01/31 08:07:23;;;;;;;26.83;7.72;;;5.70;99.90;;;;;;5113011;28;20047;-65
2023/01/31 08:09:49;;;;;;;24.23;4.75;;;5.70;99.90;;;;;;5112450;28;20096;-65
2023/01/31 08:12:15;;;;;;;22.88;4.43;;;5.70;99.90;;;;;;5112565;28;20626;-66
2023/01/31 08:14:41;;;;;;;20.92;3.80;;;5.70;99.90;;;;;;5094385;28;20040;-65
2023/01/31 08:17:08;;;;;;;21.30;4.50;;;5.70;99.90;;;;;;5112921;28;20046;-64
2023/01/31 08:19:34;;;;;;;25.08;4.18;;;5.70;99.90;;;;;;5077653;28;20126;-64
2023/01/31 08:22:01;;;;;;;19.30;4.15;;;5.80;99.90;;;;;;5112763;28;20501;-64
2023/01/31 08:24:27;;;;;;;22.92;4.07;;;5.70;99.90;;;;;;5112763;28;20079;-64
2023/01/31 08:26:53;;;;;;;20.10;4.30;;;5.70;99.90;;;;;;5112341;28;20077;-64
2023/01/31 08:29:18;;;;;;;25.45;4.70;;;5.80;99.90;;;;;;5112810;28;20092;-65
2023/01/31 08:31:44;;;;;;;16.83;5.05;;;5.80;99.90;;;;;;5112629;28;20051;-64
2023/01/31 08:34:10;;;;;;;23.15;3.42;;;5.80;99.90;;;;;;5112463;28;20043;-64
2023/01/31 08:36:36;;;;;;;18.60;3.92;;;5.80;99.90;;;;;;5111923;28;20124;-64
2023/01/31 08:39:03;;;;;;;23.67;4.00;;;5.80;99.90;;;;;;5094588;28;20461;-64
2023/01/31 08:41:29;;;;;;;25.40;4.70;;;5.80;99.90;;;;;;5112533;28;20051;-64
2023/01/31 08:43:56;;;;;;;19.30;3.78;;;5.80;99.90;;;;;;5112268;28;20058;-64
2023/01/31 08:46:29;;;;;;;27.00;4.35;;;5.90;99.90;;;;;;5094443;28;20071;-65
2023/01/31 08:48:55;;;;;;;19.63;3.78;;;5.90;99.90;;;;;;5109277;28;20040;-66
2023/01/31 08:51:21;;;;;;;20.05;4.50;;;5.90;99.90;;;;;;5111693;28;20079;-65
2023/01/31 08:53:47;;;;;;;21.45;5.40;;;5.90;99.90;;;;;;5109956;28;20628;-64
2023/01/31 08:56:14;;;;;;;18.98;4.55;;;5.90;99.90;;;;;;5093983;28;20103;-64
2023/01/31 08:58:41;;;;;;;21.52;4.90;;;5.90;99.90;;;;;;5111901;28;20047;-65
2023/01/31 09:01:17;;;;;;;20.60;4.70;;;5.90;99.90;;;;;;5112174;28;20177;-63
2023/01/31 09:03:44;;;;;;;21.30;5.32;;;6.00;99.90;;;;;;5111281;28;20557;-66
2023/01/31 09:06:18;;;;;;;22.85;4.03;;;6.00;99.90;;;;;;5112022;28;20054;-67
2023/01/31 09:08:44;;;;;;;23.55;4.18;;;5.70;99.90;;;;;;5111913;28;20040;-67
2023/01/31 09:11:15;;;;;;;22.00;4.30;;;6.10;99.90;;;;;;5094098;28;20056;-67
2023/01/31 09:13:41;;;;;;;24.23;4.60;;;6.10;99.90;;;;;;5111588;28;20040;-67
2023/01/31 09:16:09;;;;;;;21.48;4.13;;;6.20;99.90;;;;;;5094146;28;20054;-66
2023/01/31 09:18:37;;;;;;;22.75;4.35;;;6.20;99.90;;;;;;5111541;28;20086;-67
2023/01/31 09:21:09;;;;;;;23.65;4.38;;;6.20;99.90;;;;;;5093191;28;20042;-66
2023/01/31 09:23:35;;;;;;;19.25;3.80;;;6.20;99.90;;;;;;5109981;28;20036;-65
2023/01/31 09:26:02;;;;;;;23.75;5.05;;;6.20;99.90;;;;;;5111217;28;20043;-65
2023/01/31 09:28:28;;;;;;;18.58;4.18;;;6.10;99.90;;;;;;5111996;28;20079;-65
2023/01/31 09:30:54;;;;;;;21.98;4.00;;;6.20;99.90;;;;;;5108636;28;20683;-66
2023/01/31 09:33:21;;;;;;;25.60;4.57;;;6.20;99.90;;;;;;5111762;28;20043;-67
2023/01/31 09:35:58;;;;;;;18.63;4.43;;;6.30;99.90;;;;;;5111069;28;20039;-67
2023/01/31 09:38:25;;;;;;;26.60;5.07;;;6.30;99.90;;;;;;5111768;28;20051;-67
2023/01/31 09:40:51;;;;;;;18.92;4.25;;;6.30;99.90;;;;;;5093052;28;20612;-67
2023/01/31 09:43:22;;;;;;;23.90;4.50;;;6.30;99.90;;;;;;5111614;28;20430;-67
2023/01/31 09:45:49;;;;;;;40.17;6.07;;;6.30;99.90;;;;;;5111316;28;20040;-70
2023/01/31 09:48:22;;;;;;;28.10;4.85;;;6.30;99.90;;;;;;5093543;28;20067;-66
2023/01/31 09:50:54;;;;;;;19.23;4.15;;;6.30;99.90;;;;;;5093265;28;20393;-67
2023/01/31 09:53:23;;;;;;;23.85;4.95;;;6.30;99.90;;;;;;5093571;28;20400;-68
2023/01/31 09:55:55;;;;;;;25.77;4.20;;;6.30;99.90;;;;;;5092159;28;20412;-68
2023/01/31 09:58:52;;;;;;;24.27;4.47;;;6.30;99.90;;;;;;5076985;28;20553;-66
2023/01/31 10:01:39;;;;;;;19.90;3.75;;;6.30;99.90;;;;;;5098249;28;20055;-68
2023/01/31 10:04:15;;;;;;;19.55;3.78;;;6.30;99.90;;;;;;5095224;28;20061;-68
2023/01/31 10:06:58;;;;;;;30.77;5.30;;;6.40;99.90;;;;;;5114299;28;20124;-68
2023/01/31 10:09:38;;;;;;;20.80;4.28;;;6.40;99.90;;;;;;5096843;28;20086;-68
2023/01/31 10:12:26;;;;;;;26.73;4.80;;;6.40;99.90;;;;;;5115040;28;20042;-67
2023/01/31 10:15:01;;;;;;;24.60;4.45;;;6.40;99.90;;;;;;5114646;28;20443;-67
2023/01/31 10:17:38;;;;;;;18.15;3.88;;;6.50;99.90;;;;;;5096982;28;20039;-62
2023/01/31 10:20:10;;;;;;;26.65;4.43;;;6.50;99.90;;;;;;5096620;28;20142;-63
2023/01/31 10:22:59;;;;;;;19.70;4.45;;;6.50;99.90;;;;;;5114944;28;20136;-62
2023/01/31 10:25:37;;;;;;;20.48;4.70;;;6.50;99.90;;;;;;5115154;28;20126;-63
2023/01/31 10:28:14;;;;;;;26.13;4.60;;;6.50;99.90;;;;;;5114912;28;20043;-62
2023/01/31 10:30:42;;;;;;;19.70;4.82;;;6.50;99.90;;;;;;5114872;28;20050;-63
2023/01/31 10:33:35;;;;;;;21.98;4.32;;;6.50;99.90;;;;;;5114727;28;20389;-65
2023/01/31 10:36:07;;;;;;;24.52;5.38;;;6.40;99.90;;;;;;5114642;28;20039;-63
2023/01/31 10:38:45;;;;;;;18.08;4.28;;;6.50;99.90;;;;;;5096719;28;20074;-62
2023/01/31 10:41:24;;;;;;;26.90;4.70;;;6.50;99.90;;;;;;5114713;28;20055;-63
2023/01/31 10:43:58;;;;;;;23.20;4.38;;;6.40;99.90;;;;;;5096389;28;20046;-63
2023/01/31 10:46:24;;;;;;;24.58;5.60;;;6.40;99.90;;;;;;5114952;28;20039;-61
2023/01/31 10:48:50;;;;;;;20.27;4.57;;;6.40;99.90;;;;;;5114480;28;20100;-63
2023/01/31 10:51:27;;;;;;;23.75;4.72;;;6.40;99.90;;;;;;5114487;28;20134;-61
2023/01/31 10:54:12;;;;;;;20.75;4.40;;;6.50;99.90;;;;;;5114466;28;20058;-61
2023/01/31 10:56:45;;;;;;;16.30;4.05;;;6.50;99.90;;;;;;5096747;28;20059;-62
2023/01/31 10:59:26;;;;;;;20.20;5.55;;;6.50;99.90;;;;;;5096731;28;20048;-62
2023/01/31 11:01:52;;;;;;;23.50;5.60;;;6.40;99.90;;;;;;5096301;28;20047;-62
2023/01/31 11:04:29;;;;;;;22.45;4.95;;;6.50;99.90;;;;;;5114534;28;20540;-61
2023/01/31 11:07:00;;;;;;;24.50;4.55;;;6.50;99.90;;;;;;5096202;28;20047;-62
2023/01/31 11:09:34;;;;;;;22.17;4.35;;;6.50;99.90;;;;;;5114525;28;20052;-62
2023/01/31 11:12:02;;;;;;;21.48;4.68;;;6.50;99.90;;;;;;5113214;28;20039;-62
2023/01/31 11:14:29;;;;;;;23.58;5.32;;;6.50;99.90;;;;;;5114278;28;20039;-62
2023/01/31 11:17:06;;;;;;;25.13;5.43;;;6.60;99.90;;;;;;5095676;28;20505;-62
2023/01/31 11:19:39;;;;;;;27.23;5.35;;;6.50;99.90;;;;;;5114651;28;20069;-62
2023/01/31 11:22:06;;;;;;;25.95;4.65;;;6.50;99.90;;;;;;5113900;28;20412;-62
2023/01/31 11:24:34;;;;;;;34.70;5.75;;;6.60;99.90;;;;;;5114155;28;20055;-62
2023/01/31 11:27:04;;;;;;;22.95;4.85;;;6.50;99.90;;;;;;5113844;28;20097;-62
2023/01/31 11:29:37;;;;;;;21.95;4.20;;;6.50;99.90;;;;;;5095886;28;20042;-61
2023/01/31 11:32:10;;;;;;;21.13;4.63;;;6.60;99.90;;;;;;5113736;28;20038;-61
2023/01/31 11:34:36;;;;;;;22.30;4.38;;;6.60;99.90;;;;;;5113851;28;20079;-61
2023/01/31 11:37:22;;;;;;;25.77;4.80;;;6.60;99.90;;;;;;5113227;28;20051;-63
2023/01/31 11:39:58;;;;;;;26.20;4.55;;;6.60;99.90;;;;;;5112992;28;20059;-62
2023/01/31 11:42:24;;;;;;;33.20;5.57;;;6.70;99.90;;;;;;5095401;28;20050;-63
2023/01/31 11:45:00;;;;;;;24.60;5.20;;;6.60;99.90;;;;;;5095721;28;20123;-63
2023/01/31 11:47:38;;;;;;;23.90;4.50;;;6.70;99.90;;;;;;5113682;28;20063;-63
2023/01/31 11:50:04;;;;;;;21.75;4.65;;;6.80;99.90;;;;;;5113342;28;20052;-62
2023/01/31 11:52:33;;;;;;;22.75;4.35;;;6.80;99.90;;;;;;5113316;28;20131;-62
2023/01/31 11:55:06;;;;;;;23.65;5.18;;;6.80;99.90;;;;;;5113205;28;20052;-63
2023/01/31 11:57:35;;;;;;;20.48;4.72;;;6.90;99.90;;;;;;5113119;28;20055;-62
2023/01/31 12:00:18;;;;;;;22.02;5.13;;;6.90;99.90;;;;;;5113129;28;20043;-63
2023/01/31 12:02:45;;;;;;;23.50;4.03;;;6.90;99.90;;;;;;5113330;28;20122;-63
2023/01/31 12:05:16;;;;;;;19.70;5.18;;;6.90;99.90;;;;;;5112977;28;20389;-63
2023/01/31 12:07:49;;;;;;;26.45;4.65;;;6.90;99.90;;;;;;5113163;28;20043;-63
2023/01/31 12:10:39;;;;;;;26.98;5.00;;;6.90;99.90;;;;;;5112934;28;20047;-63
2023/01/31 12:13:17;;;;;;;26.83;4.93;;;7.00;99.90;;;;;;5112908;28;20044;-63
2023/01/31 12:15:58;;;;;;;20.70;5.00;;;7.10;99.90;;;;;;5113286;28;20048;-62
2023/01/31 12:18:56;;;;;;;26.85;5.47;;;7.10;99.90;;;;;;5112862;28;20051;-63
2023/01/31 12:21:51;;;;;;;25.55;4.47;;;7.10;99.90;;;;;;5060540;28;20058;-62
2023/01/31 12:24:48;;;;;;;20.67;4.13;;;7.20;99.90;;;;;;5112624;28;20103;-64
2023/01/31 12:27:27;;;;;;;17.38;4.38;;;7.30;99.90;;;;;;5112676;28;20051;-63
2023/01/31 12:30:02;;;;;;;30.88;4.50;;;7.30;99.90;;;;;;5112859;28;20397;-64
2023/01/31 12:33:06;;;;;;;20.70;5.10;;;7.40;99.90;;;;;;5112806;28;20044;-63
2023/01/31 12:35:44;;;;;;;24.43;5.17;;;7.40;99.90;;;;;;5070779;28;20059;-63
2023/01/31 12:38:22;;;;;;;21.35;4.80;;;7.50;99.90;;;;;;5112345;28;20378;-63
2023/01/31 12:41:13;;;;;;;22.65;4.22;;;7.50;99.90;;;;;;5112565;28;20043;-63
2023/01/31 12:43:38;;;;;;;16.13;3.80;;;7.60;99.90;;;;;;5094104;28;20040;-63
2023/01/31 12:46:28;;;;;;;16.27;3.72;;;7.60;99.90;;;;;;5112647;28;20047;-63
2023/01/31 12:49:44;;;;;;;17.42;3.70;;;7.70;99.90;;;;;;5112722;28;20445;-63
2023/01/31 12:52:32;;;;;;;21.58;4.28;;;7.60;99.90;;;;;;5066285;28;20077;-63
2023/01/31 12:55:24;;;;;;;14.43;3.63;;;7.70;99.90;;;;;;5112586;28;20062;-63
2023/01/31 12:57:56;;;;;;;18.40;4.13;;;7.70;99.90;;;;;;5112216;28;20558;-63
2023/01/31 13:00:35;;;;;;;19.20;5.15;;;7.80;99.90;;;;;;5093822;28;20457;-63
2023/01/31 13:03:19;;;;;;;16.33;3.90;;;7.80;99.90;;;;;;5094034;28;20043;-63
2023/01/31 13:06:02;;;;;;;19.98;4.82;;;7.90;99.90;;;;;;5112369;28;20138;-63
2023/01/31 13:08:30;;;;;;;15.85;3.95;;;7.90;99.90;;;;;;5112424;28;20226;-62
2023/01/31 13:11:12;;;;;;;19.73;4.32;;;7.90;99.90;;;;;;5077506;28;20043;-62
2023/01/31 13:13:54;;;;;;;24.23;4.13;;;7.90;99.90;;;;;;5112356;28;20051;-62